Time;durP1;ratioP1;P1;durP2;ratioP2;P2;SDS_P1;SDS_P2;PMS_P1;PMS_P2;Temp;Humidity;BMP_temperature;BMP_pressure;BME280_temperature;BME280_humidity;BME280_pressure;Samples;Min_cycle;Max_cycle;Signal;HPM_P1;HPM_P2
2022/03/06 00:00:45;;;;;;;14.88;7.10;;;-1.60;99.90;;;;;;5000882;28;20084;-38
2022/03/06 00:03:11;;;;;;;13.63;6.47;;;-1.50;99.90;;;;;;5000214;28;20037;-40
2022/03/06 00:05:36;;;;;;;16.33;7.75;;;-1.40;99.90;;;;;;5003908;28;20056;-39
2022/03/06 00:08:03;;;;;;;11.23;6.15;;;-1.30;99.90;;;;;;5003845;28;20037;-37
2022/03/06 00:10:29;;;;;;;11.95;7.05;;;-1.40;99.90;;;;;;5001594;28;20038;-38
2022/03/06 00:12:55;;;;;;;15.95;8.13;;;-1.50;99.90;;;;;;5002875;28;20430;-39
2022/03/06 00:15:22;;;;;;;16.02;8.20;;;-1.70;99.90;;;;;;5003647;28;20033;-39
2022/03/06 00:17:49;;;;;;;12.77;7.53;;;-1.90;99.90;;;;;;5002649;28;20061;-37
2022/03/06 00:20:15;;;;;;;19.52;8.57;;;-2.10;99.90;;;;;;5000098;28;20046;-40
2022/03/06 00:22:41;;;;;;;19.42;8.77;;;-2.20;99.90;;;;;;5000915;28;20061;-38
2022/03/06 00:25:07;;;;;;;15.07;7.43;;;-2.30;99.90;;;;;;5002838;28;20629;-38
2022/03/06 00:27:33;;;;;;;17.95;8.57;;;-2.40;99.90;;;;;;5001649;28;20041;-39
2022/03/06 00:29:59;;;;;;;15.05;7.38;;;-2.50;99.90;;;;;;5002658;28;20052;-38
2022/03/06 00:32:25;;;;;;;14.95;7.57;;;-2.60;99.90;;;;;;5002974;28;20659;-40
2022/03/06 00:34:51;;;;;;;14.43;7.75;;;-2.50;99.90;;;;;;5003325;28;20458;-39
2022/03/06 00:37:17;;;;;;;14.25;8.50;;;-2.50;99.90;;;;;;5001409;28;20045;-40
2022/03/06 00:39:43;;;;;;;20.00;8.48;;;-2.40;99.90;;;;;;5002722;28;20259;-37
2022/03/06 00:42:10;;;;;;;18.00;9.23;;;-2.30;99.90;;;;;;4999927;28;20441;-40
2022/03/06 00:44:36;;;;;;;13.15;8.63;;;-2.30;99.90;;;;;;4998974;28;20030;-36
2022/03/06 00:47:03;;;;;;;15.43;8.02;;;-2.30;99.90;;;;;;5002994;28;20454;-40
2022/03/06 00:49:29;;;;;;;19.88;8.27;;;-2.40;99.90;;;;;;5003053;28;20026;-39
2022/03/06 00:51:55;;;;;;;18.23;8.38;;;-2.50;99.90;;;;;;5002985;28;20691;-39
2022/03/06 00:54:20;;;;;;;9.13;6.47;;;-2.50;99.90;;;;;;5000894;28;20029;-39
2022/03/06 00:56:46;;;;;;;19.25;8.68;;;-2.60;99.90;;;;;;5001736;28;20105;-37
2022/03/06 00:59:12;;;;;;;17.08;9.13;;;-2.70;99.90;;;;;;5002341;28;20509;-38
2022/03/06 01:01:39;;;;;;;17.88;8.38;;;-2.70;99.90;;;;;;5001091;28;20034;-39
2022/03/06 01:04:04;;;;;;;14.75;7.72;;;-2.80;99.90;;;;;;4998688;28;20105;-39
2022/03/06 01:06:30;;;;;;;16.13;9.10;;;-2.80;99.90;;;;;;5005757;28;20220;-39
2022/03/06 01:08:56;;;;;;;20.42;10.20;;;-2.70;99.90;;;;;;5000642;28;20049;-39
2022/03/06 01:11:22;;;;;;;18.27;9.05;;;-2.70;99.90;;;;;;5002041;28;20045;-38
2022/03/06 01:13:47;;;;;;;19.30;8.68;;;-2.60;99.90;;;;;;5000010;28;20105;-39
2022/03/06 01:16:13;;;;;;;19.23;9.15;;;-2.60;99.90;;;;;;4997309;28;20483;-39
2022/03/06 01:18:39;;;;;;;14.15;7.88;;;-2.70;99.90;;;;;;4998346;28;20030;-36
2022/03/06 01:21:05;;;;;;;19.92;7.18;;;-2.70;99.90;;;;;;4999285;28;20048;-37
2022/03/06 01:23:30;;;;;;;16.33;8.95;;;-2.70;99.90;;;;;;4999250;28;20041;-37
2022/03/06 01:25:56;;;;;;;16.50;7.75;;;-2.70;99.90;;;;;;5003078;28;20121;-38
2022/03/06 01:28:22;;;;;;;15.98;7.88;;;-2.70;99.90;;;;;;5001320;28;20065;-38
2022/03/06 01:30:47;;;;;;;19.27;10.05;;;-2.70;99.90;;;;;;5001551;28;20038;-38
2022/03/06 01:33:13;;;;;;;20.30;7.50;;;-2.70;99.90;;;;;;5004008;28;20577;-39
2022/03/06 01:35:39;;;;;;;17.95;9.02;;;-2.80;99.90;;;;;;4997668;28;20034;-39
2022/03/06 01:38:05;;;;;;;14.48;8.40;;;-2.80;99.90;;;;;;5000192;28;20034;-40
2022/03/06 01:40:30;;;;;;;17.40;8.05;;;-2.80;99.90;;;;;;5003800;28;20084;-39
2022/03/06 01:42:57;;;;;;;15.77;8.27;;;-2.80;99.90;;;;;;5001366;28;20029;-37
2022/03/06 01:45:23;;;;;;;18.42;8.05;;;-2.80;99.90;;;;;;5001139;28;20491;-37
2022/03/06 01:47:54;;;;;;;19.50;9.90;;;-2.80;99.90;;;;;;4985614;28;20026;-37
2022/03/06 01:50:27;;;;;;;20.88;8.25;;;-2.80;99.90;;;;;;4999512;28;20045;-39
2022/03/06 01:52:55;;;;;;;15.93;8.60;;;-2.70;99.90;;;;;;5000001;28;20453;-39
2022/03/06 01:55:25;;;;;;;19.83;9.15;;;-2.60;99.90;;;;;;4997606;28;20586;-38
2022/03/06 01:57:53;;;;;;;21.23;9.63;;;-2.60;99.90;;;;;;5001740;28;20037;-37
2022/03/06 02:02:49;;;;;;;22.02;9.18;;;-2.50;99.90;;;;;;5012534;22;20384;-74
2022/03/06 02:05:16;;;;;;;19.10;9.35;;;-2.40;99.90;;;;;;5019439;22;20073;-74
2022/03/06 02:07:42;;;;;;;15.65;8.00;;;-2.40;99.90;;;;;;5013442;22;20053;-74
2022/03/06 02:10:09;;;;;;;14.63;8.10;;;-2.40;99.90;;;;;;5010098;22;20048;-74
2022/03/06 02:12:35;;;;;;;15.25;9.07;;;-2.40;99.90;;;;;;5027864;22;20049;-75
2022/03/06 02:17:29;;;;;;;18.50;8.50;;;-2.60;99.90;;;;;;5005458;22;20062;-74
2022/03/06 02:19:58;;;;;;;16.58;8.07;;;-2.70;99.90;;;;;;5021737;22;20065;-74
2022/03/06 02:22:32;;;;;;;19.00;9.93;;;-2.70;99.90;;;;;;4993028;22;20069;-75
2022/03/06 02:25:00;;;;;;;16.70;9.27;;;-2.70;99.90;;;;;;5015255;22;20058;-74
2022/03/06 02:27:26;;;;;;;21.23;9.93;;;-2.70;99.90;;;;;;4996259;22;20878;-74
2022/03/06 02:29:52;;;;;;;21.13;8.82;;;-2.70;99.90;;;;;;5005109;22;20344;-74
2022/03/06 02:32:21;;;;;;;14.98;7.70;;;-2.70;99.90;;;;;;4974669;23;20409;-74
2022/03/06 02:34:48;;;;;;;16.52;9.10;;;-2.80;99.90;;;;;;4996789;22;20062;-75
2022/03/06 02:37:16;;;;;;;17.17;7.40;;;-2.90;99.90;;;;;;5000076;23;20136;-74
2022/03/06 02:39:43;;;;;;;15.25;8.88;;;-2.90;99.90;;;;;;4987291;23;20496;-74
2022/03/06 02:42:10;;;;;;;17.48;8.85;;;-2.90;99.90;;;;;;5011271;22;20161;-75
2022/03/06 02:44:36;;;;;;;14.05;8.23;;;-2.90;99.90;;;;;;4984317;23;20054;-74
2022/03/06 02:47:03;;;;;;;19.50;9.77;;;-3.00;99.90;;;;;;4980986;22;20054;-77
2022/03/06 02:49:29;;;;;;;20.98;9.02;;;-3.00;99.90;;;;;;4997728;23;20050;-75
2022/03/06 02:51:55;;;;;;;20.33;9.00;;;-3.10;99.90;;;;;;4985881;23;20055;-74
2022/03/06 02:54:20;;;;;;;21.25;8.32;;;-3.00;99.90;;;;;;4993154;23;21521;-74
2022/03/06 02:56:47;;;;;;;12.45;7.65;;;-3.00;99.90;;;;;;5010311;22;20043;-74
2022/03/06 02:59:13;;;;;;;19.73;8.85;;;-3.00;99.90;;;;;;4983199;22;20426;-74
2022/03/06 03:01:42;;;;;;;19.33;9.18;;;-3.00;99.90;;;;;;4979588;23;20058;-74
2022/03/06 03:04:11;;;;;;;21.40;8.88;;;-3.00;99.90;;;;;;5004952;22;20113;-74
2022/03/06 03:06:38;;;;;;;24.15;10.25;;;-3.00;99.90;;;;;;4989545;22;20138;-74
2022/03/06 03:09:07;;;;;;;17.27;8.65;;;-2.90;99.90;;;;;;4992643;22;20426;-74
2022/03/06 03:11:34;;;;;;;19.08;9.98;;;-3.00;99.90;;;;;;5003459;22;20093;-74
2022/03/06 03:14:01;;;;;;;16.67;8.90;;;-3.00;99.90;;;;;;4975955;23;20059;-75
2022/03/06 03:18:55;;;;;;;25.38;10.32;;;-3.00;99.90;;;;;;4997932;28;20484;-37
2022/03/06 03:21:20;;;;;;;22.83;9.73;;;-3.00;99.90;;;;;;4999260;28;20494;-35
2022/03/06 03:23:46;;;;;;;15.82;7.90;;;-3.00;99.90;;;;;;4998319;28;20069;-36
2022/03/06 03:26:12;;;;;;;16.75;8.27;;;-3.10;99.90;;;;;;4999714;28;20030;-37
2022/03/06 03:28:37;;;;;;;17.42;7.63;;;-3.00;99.90;;;;;;5001892;28;20044;-36
2022/03/06 03:31:03;;;;;;;22.42;9.73;;;-3.10;99.90;;;;;;4994380;28;20045;-37
2022/03/06 03:33:29;;;;;;;16.42;9.45;;;-3.10;99.90;;;;;;4997281;28;20509;-37
2022/03/06 03:35:54;;;;;;;19.90;9.77;;;-3.10;99.90;;;;;;4998418;28;20034;-37
2022/03/06 03:38:20;;;;;;;18.98;8.98;;;-3.10;99.90;;;;;;5000132;28;20111;-34
2022/03/06 03:40:47;;;;;;;15.57;8.73;;;-3.10;99.90;;;;;;4999835;28;20479;-36
2022/03/06 03:43:12;;;;;;;20.25;10.55;;;-3.10;99.90;;;;;;5001677;28;20470;-34
2022/03/06 03:45:38;;;;;;;18.40;9.68;;;-3.20;99.90;;;;;;4999934;28;20064;-35
2022/03/06 03:48:04;;;;;;;23.92;10.15;;;-3.20;99.90;;;;;;5001550;28;20025;-37
2022/03/06 03:50:30;;;;;;;17.27;8.95;;;-3.30;99.90;;;;;;4999321;28;20097;-36
2022/03/06 03:52:55;;;;;;;20.83;9.88;;;-3.30;99.90;;;;;;5001114;28;20080;-37
2022/03/06 03:55:21;;;;;;;16.08;10.02;;;-3.30;99.90;;;;;;5002144;28;20030;-34
2022/03/06 03:57:47;;;;;;;25.52;11.75;;;-3.30;99.90;;;;;;5001487;28;20034;-37
2022/03/06 04:00:12;;;;;;;16.48;9.70;;;-3.30;99.90;;;;;;5000433;28;20026;-37
2022/03/06 04:02:38;;;;;;;20.55;8.38;;;-3.40;99.90;;;;;;5003961;28;20473;-37
2022/03/06 04:05:04;;;;;;;17.08;8.18;;;-3.40;99.90;;;;;;5001175;28;20030;-36
2022/03/06 04:07:30;;;;;;;18.63;9.55;;;-3.40;99.90;;;;;;5001312;28;20036;-37
2022/03/06 04:09:56;;;;;;;19.38;8.73;;;-3.40;99.90;;;;;;5001871;28;20033;-37
2022/03/06 04:12:21;;;;;;;16.75;8.43;;;-3.30;99.90;;;;;;5000697;28;20634;-36
2022/03/06 04:14:47;;;;;;;15.32;6.93;;;-3.30;99.90;;;;;;4979031;28;20134;-37
2022/03/06 04:17:13;;;;;;;15.27;7.80;;;-3.30;99.90;;;;;;4997185;28;20054;-37
2022/03/06 04:19:38;;;;;;;15.10;8.73;;;-3.40;99.90;;;;;;5000308;28;20060;-36
2022/03/06 04:22:04;;;;;;;16.17;9.77;;;-3.40;99.90;;;;;;5002726;28;20029;-36
2022/03/06 04:24:30;;;;;;;18.95;9.85;;;-3.30;99.90;;;;;;5000765;28;20084;-34
2022/03/06 04:26:55;;;;;;;17.23;8.85;;;-3.30;99.90;;;;;;5002071;28;20084;-35
2022/03/06 04:29:21;;;;;;;19.10;9.95;;;-3.20;99.90;;;;;;5000303;28;20506;-37
2022/03/06 04:31:47;;;;;;;16.88;8.43;;;-3.20;99.90;;;;;;5002762;28;20050;-33
2022/03/06 04:34:13;;;;;;;16.17;7.78;;;-3.20;99.90;;;;;;4998290;28;20069;-34
2022/03/06 04:36:38;;;;;;;17.40;8.48;;;-3.20;99.90;;;;;;5006095;28;20108;-36
2022/03/06 04:39:05;;;;;;;15.20;7.75;;;-3.20;99.90;;;;;;5006950;28;20148;-35
2022/03/06 04:41:31;;;;;;;17.75;9.30;;;-3.30;99.90;;;;;;5006789;28;20109;-35
2022/03/06 04:43:57;;;;;;;15.70;7.47;;;-3.40;99.90;;;;;;5003760;28;20108;-36
2022/03/06 04:46:23;;;;;;;17.73;9.65;;;-3.50;99.90;;;;;;5001281;28;20030;-34
2022/03/06 04:48:49;;;;;;;23.05;10.07;;;-3.60;99.90;;;;;;5001656;28;20826;-36
2022/03/06 04:51:15;;;;;;;15.57;8.52;;;-3.60;99.90;;;;;;5003900;28;20112;-37
2022/03/06 04:53:41;;;;;;;18.35;8.80;;;-3.60;99.90;;;;;;5001578;28;20121;-36
2022/03/06 04:56:07;;;;;;;15.85;7.47;;;-3.50;99.90;;;;;;5001575;28;20034;-36
2022/03/06 04:58:33;;;;;;;17.60;9.05;;;-3.60;99.90;;;;;;5001326;28;20548;-36
2022/03/06 05:00:58;;;;;;;13.68;8.98;;;-3.50;99.90;;;;;;5002417;28;20128;-35
2022/03/06 05:03:24;;;;;;;20.77;8.88;;;-3.50;99.90;;;;;;5003688;28;20151;-35
2022/03/06 05:05:50;;;;;;;20.20;10.07;;;-3.50;99.90;;;;;;5000511;28;20049;-37
2022/03/06 05:08:15;;;;;;;16.23;9.10;;;-3.50;99.90;;;;;;5000448;28;20032;-37
2022/03/06 05:10:41;;;;;;;15.32;8.40;;;-3.40;99.90;;;;;;5003062;28;20034;-37
2022/03/06 05:13:07;;;;;;;18.85;8.32;;;-3.50;99.90;;;;;;4998079;28;20034;-37
2022/03/06 05:15:33;;;;;;;15.45;8.68;;;-3.50;99.90;;;;;;4998809;28;20165;-37
2022/03/06 05:17:59;;;;;;;12.95;7.25;;;-3.40;99.90;;;;;;5001046;28;20403;-34
2022/03/06 05:20:25;;;;;;;13.10;6.75;;;-3.30;99.90;;;;;;5001939;28;20767;-34
2022/03/06 05:22:50;;;;;;;12.05;7.35;;;-3.20;99.90;;;;;;5003419;28;20083;-34
2022/03/06 05:25:16;;;;;;;12.10;6.72;;;-3.20;99.90;;;;;;5000961;28;20049;-36
2022/03/06 05:27:41;;;;;;;14.43;8.65;;;-3.10;99.90;;;;;;4999287;28;20036;-37
2022/03/06 05:30:09;;;;;;;12.48;7.82;;;-3.10;99.90;;;;;;5003626;28;20034;-35
2022/03/06 05:32:35;;;;;;;15.30;7.85;;;-3.10;99.90;;;;;;5000995;28;20069;-35
2022/03/06 05:35:00;;;;;;;17.50;7.97;;;-3.10;99.90;;;;;;4999243;28;20033;-30
2022/03/06 05:37:26;;;;;;;14.30;7.72;;;-3.00;99.90;;;;;;5001661;28;20041;-30
2022/03/06 05:39:52;;;;;;;16.33;9.43;;;-3.00;99.90;;;;;;5001274;28;20064;-30
2022/03/06 05:42:19;;;;;;;19.48;8.50;;;-3.00;99.90;;;;;;4998841;28;21215;-30
2022/03/06 05:44:45;;;;;;;12.55;8.13;;;-3.00;99.90;;;;;;5000476;28;20030;-30
2022/03/06 05:47:10;;;;;;;19.40;8.63;;;-3.10;99.90;;;;;;5000909;28;20397;-31
2022/03/06 05:49:36;;;;;;;17.65;8.27;;;-3.10;99.90;;;;;;5001769;28;20029;-30
2022/03/06 05:52:03;;;;;;;14.27;7.78;;;-3.00;99.90;;;;;;4999734;28;20072;-30
2022/03/06 05:54:29;;;;;;;17.55;9.13;;;-3.10;99.90;;;;;;5000979;28;20620;-30
2022/03/06 05:56:55;;;;;;;21.67;8.30;;;-3.20;99.90;;;;;;5000193;28;20036;-30
2022/03/06 05:59:21;;;;;;;18.63;8.00;;;-3.20;99.90;;;;;;5000325;28;20026;-30
2022/03/06 06:01:46;;;;;;;17.50;7.97;;;-3.40;99.90;;;;;;5000127;28;20117;-30
2022/03/06 06:04:12;;;;;;;11.70;6.38;;;-3.50;99.90;;;;;;5001861;28;20057;-30
2022/03/06 06:06:38;;;;;;;15.95;9.48;;;-3.50;99.90;;;;;;5000102;28;20714;-30
2022/03/06 06:09:04;;;;;;;13.15;7.18;;;-3.60;99.90;;;;;;5001779;28;21481;-30
2022/03/06 06:11:30;;;;;;;13.43;7.63;;;-3.60;99.90;;;;;;5001324;28;20438;-30
2022/03/06 06:13:56;;;;;;;20.70;9.10;;;-3.60;99.90;;;;;;5000884;28;20115;-30
2022/03/06 06:16:22;;;;;;;12.15;7.97;;;-3.70;99.90;;;;;;5000116;28;20417;-30
2022/03/06 06:18:47;;;;;;;15.80;8.10;;;-3.70;99.90;;;;;;5000371;28;20557;-30
2022/03/06 06:21:15;;;;;;;15.68;7.22;;;-3.70;99.90;;;;;;4999830;28;20049;-30
2022/03/06 06:23:41;;;;;;;17.45;8.00;;;-3.60;99.90;;;;;;5003340;28;20034;-30
2022/03/06 06:26:06;;;;;;;13.15;7.82;;;-3.60;99.90;;;;;;5000242;28;20033;-30
2022/03/06 06:28:32;;;;;;;16.83;7.60;;;-3.50;99.90;;;;;;5000890;28;20049;-31
2022/03/06 06:30:58;;;;;;;18.73;9.50;;;-3.50;99.90;;;;;;5000769;28;20372;-30
2022/03/06 06:33:23;;;;;;;16.83;7.40;;;-3.50;99.90;;;;;;4979167;28;20478;-30
2022/03/06 06:35:49;;;;;;;16.88;8.52;;;-3.50;99.90;;;;;;4999939;28;20247;-30
2022/03/06 06:38:14;;;;;;;17.38;8.73;;;-3.40;99.90;;;;;;5002324;28;20041;-30
2022/03/06 06:40:40;;;;;;;12.60;7.65;;;-3.40;99.90;;;;;;5000042;28;20022;-30
2022/03/06 06:43:05;;;;;;;17.23;8.98;;;-3.30;99.90;;;;;;4995962;28;20056;-30
2022/03/06 06:45:31;;;;;;;16.48;8.70;;;-3.40;99.90;;;;;;5000027;28;20029;-30
2022/03/06 06:47:57;;;;;;;14.82;7.53;;;-3.40;99.90;;;;;;4996720;28;20022;-30
2022/03/06 06:50:22;;;;;;;17.02;9.32;;;-3.50;99.90;;;;;;4997338;28;20030;-30
2022/03/06 06:52:48;;;;;;;17.77;8.05;;;-3.40;99.90;;;;;;4999536;28;20051;-30
2022/03/06 06:55:13;;;;;;;19.13;9.50;;;-3.30;99.90;;;;;;4999387;28;20092;-30
2022/03/06 06:57:39;;;;;;;12.85;8.25;;;-3.30;99.90;;;;;;5001455;28;20494;-30
2022/03/06 07:00:07;;;;;;;17.17;9.05;;;-3.20;99.90;;;;;;5000757;28;20064;-30
2022/03/06 07:02:33;;;;;;;23.00;10.30;;;-3.00;99.90;;;;;;4995762;28;20395;-30
2022/03/06 07:04:59;;;;;;;18.15;10.82;;;-2.80;99.90;;;;;;5001508;28;20034;-30
2022/03/06 07:07:24;;;;;;;20.55;11.07;;;-2.60;99.90;;;;;;4999770;28;20030;-30
2022/03/06 07:09:50;;;;;;;25.85;10.55;;;-2.50;99.90;;;;;;4999847;28;20066;-30
2022/03/06 07:12:16;;;;;;;15.30;8.45;;;-2.40;99.90;;;;;;5002162;28;20034;-30
2022/03/06 07:14:41;;;;;;;19.30;10.85;;;-2.30;99.90;;;;;;5005087;28;20049;-30
2022/03/06 07:17:07;;;;;;;18.70;9.60;;;-2.20;99.90;;;;;;5003458;28;20045;-30
2022/03/06 07:19:33;;;;;;;18.02;9.43;;;-2.10;99.90;;;;;;5004138;28;20040;-30
2022/03/06 07:21:59;;;;;;;24.50;10.68;;;-2.00;99.90;;;;;;5003685;28;20682;-30
2022/03/06 07:24:25;;;;;;;14.30;8.60;;;-1.90;99.90;;;;;;5003105;28;20099;-30
2022/03/06 07:26:51;;;;;;;15.88;9.25;;;-1.80;99.90;;;;;;5003628;28;20500;-30
2022/03/06 07:29:17;;;;;;;21.05;10.93;;;-1.70;99.90;;;;;;5001304;28;20030;-30
2022/03/06 07:31:42;;;;;;;20.23;9.65;;;-1.70;99.90;;;;;;5002497;28;20042;-30
2022/03/06 07:34:08;;;;;;;23.48;10.82;;;-1.50;99.90;;;;;;5002591;28;20115;-30
2022/03/06 07:36:34;;;;;;;18.98;9.18;;;-1.50;99.90;;;;;;5003947;28;20057;-30
2022/03/06 07:38:59;;;;;;;27.38;11.23;;;-1.40;99.90;;;;;;5003649;28;20034;-30
2022/03/06 07:41:25;;;;;;;20.02;10.27;;;-1.30;99.90;;;;;;5003648;28;20034;-30
2022/03/06 07:43:51;;;;;;;16.95;9.27;;;-1.20;99.90;;;;;;5004816;28;20033;-30
2022/03/06 07:46:16;;;;;;;24.52;10.85;;;-1.10;99.90;;;;;;5004166;28;20126;-30
2022/03/06 07:48:42;;;;;;;22.90;10.75;;;-1.10;99.90;;;;;;5001456;28;20065;-30
2022/03/06 07:51:07;;;;;;;23.77;11.30;;;-0.90;99.90;;;;;;5001739;28;20069;-30
2022/03/06 07:53:33;;;;;;;20.42;10.25;;;-0.90;99.90;;;;;;5000878;28;20041;-30
2022/03/06 07:56:00;;;;;;;22.83;8.85;;;-0.80;99.90;;;;;;5003004;28;20070;-30
2022/03/06 07:58:25;;;;;;;20.13;9.90;;;-0.80;99.90;;;;;;5001722;28;20453;-30
2022/03/06 08:00:51;;;;;;;24.05;10.77;;;-0.70;99.90;;;;;;5002863;28;20044;-30
2022/03/06 08:03:17;;;;;;;23.05;10.48;;;-0.60;99.90;;;;;;5003797;28;20033;-31
2022/03/06 08:05:44;;;;;;;23.63;12.07;;;-0.50;99.90;;;;;;4999711;28;20053;-30
2022/03/06 08:08:09;;;;;;;23.00;11.23;;;-0.50;99.90;;;;;;4999847;28;20030;-30
2022/03/06 08:10:35;;;;;;;16.88;9.20;;;-0.30;99.90;;;;;;5001957;28;20842;-30
2022/03/06 08:13:00;;;;;;;20.27;11.38;;;-0.30;99.90;;;;;;5005257;28;20076;-30
2022/03/06 08:15:26;;;;;;;20.60;10.30;;;-0.20;99.90;;;;;;4998808;28;20038;-30
2022/03/06 08:17:52;;;;;;;18.92;10.15;;;-0.10;99.90;;;;;;5001126;28;20117;-30
2022/03/06 08:20:17;;;;;;;16.27;9.05;;;0.00;99.90;;;;;;5003198;28;20073;-30
2022/03/06 08:22:43;;;;;;;20.83;8.48;;;0.10;99.90;;;;;;4981360;28;20034;-30
2022/03/06 08:25:09;;;;;;;18.55;9.82;;;0.20;99.90;;;;;;5006432;28;20057;-31
2022/03/06 08:27:35;;;;;;;19.27;9.05;;;0.30;99.90;;;;;;5005529;28;20672;-30
2022/03/06 08:30:00;;;;;;;19.30;8.77;;;0.40;99.90;;;;;;5004312;28;20034;-30
2022/03/06 08:32:26;;;;;;;16.58;8.35;;;0.40;99.90;;;;;;5006778;28;22371;-30
2022/03/06 08:34:52;;;;;;;18.02;9.18;;;0.40;99.90;;;;;;5004933;28;20029;-31
2022/03/06 08:37:19;;;;;;;17.33;8.73;;;0.60;99.90;;;;;;5003966;28;20494;-30
2022/03/06 08:39:46;;;;;;;16.88;8.05;;;0.60;99.80;;;;;;5006293;28;20037;-30
2022/03/06 08:42:12;;;;;;;17.17;8.93;;;0.70;99.90;;;;;;5004091;28;20111;-30
2022/03/06 08:44:37;;;;;;;24.80;11.15;;;0.80;99.90;;;;;;5005734;28;20390;-30
2022/03/06 08:47:04;;;;;;;18.50;8.02;;;0.90;99.60;;;;;;5005546;28;20062;-30
2022/03/06 08:49:29;;;;;;;19.98;9.77;;;0.80;97.50;;;;;;4996991;28;20032;-30
2022/03/06 08:51:55;;;;;;;17.88;8.52;;;0.80;97.20;;;;;;5001132;28;20769;-31
2022/03/06 08:54:21;;;;;;;16.85;9.57;;;0.80;95.80;;;;;;4998057;28;20037;-30
2022/03/06 08:56:46;;;;;;;15.90;7.13;;;0.90;98.50;;;;;;4994945;28;20759;-31
2022/03/06 08:59:12;;;;;;;15.10;8.48;;;1.10;96.40;;;;;;4995872;28;20030;-30
2022/03/06 09:01:38;;;;;;;17.23;8.07;;;1.20;95.90;;;;;;5000269;28;20132;-30
2022/03/06 09:04:04;;;;;;;19.75;8.48;;;1.30;95.50;;;;;;4998275;28;20155;-31
2022/03/06 09:06:30;;;;;;;18.17;8.98;;;1.20;94.30;;;;;;4997806;28;20053;-30
2022/03/06 09:08:55;;;;;;;20.30;9.55;;;1.40;94.70;;;;;;4998638;28;20546;-30
2022/03/06 09:11:21;;;;;;;19.02;9.68;;;1.50;94.50;;;;;;4999814;28;20080;-30
2022/03/06 09:13:47;;;;;;;19.15;8.23;;;1.60;91.60;;;;;;4995703;28;20022;-30
2022/03/06 09:16:12;;;;;;;13.77;7.75;;;1.70;90.70;;;;;;5001106;28;20585;-30
2022/03/06 09:18:38;;;;;;;18.45;8.73;;;1.70;90.70;;;;;;4996023;28;20506;-30
2022/03/06 09:21:03;;;;;;;18.52;8.35;;;1.70;90.80;;;;;;4994748;28;20041;-30
2022/03/06 09:23:29;;;;;;;19.02;9.57;;;1.60;83.70;;;;;;4997859;28;20034;-30
2022/03/06 09:25:55;;;;;;;16.02;8.63;;;1.70;86.40;;;;;;4999666;28;20030;-30
2022/03/06 09:28:20;;;;;;;14.65;7.90;;;1.80;81.80;;;;;;4997718;28;20036;-31
2022/03/06 09:30:46;;;;;;;14.57;7.18;;;1.80;78.20;;;;;;4995233;28;20042;-30
2022/03/06 09:33:12;;;;;;;14.18;7.95;;;1.70;74.10;;;;;;4997877;28;20029;-30
2022/03/06 09:35:37;;;;;;;14.65;8.25;;;1.80;82.10;;;;;;4996483;28;20463;-30
2022/03/06 09:38:03;;;;;;;16.17;8.63;;;2.00;79.30;;;;;;4994089;28;20093;-30
2022/03/06 09:40:29;;;;;;;21.30;8.45;;;2.10;74.20;;;;;;4998611;28;20562;-30
2022/03/06 09:42:55;;;;;;;16.52;8.20;;;2.30;72.10;;;;;;4996774;28;20038;-30
2022/03/06 09:45:23;;;;;;;11.50;6.53;;;2.20;69.40;;;;;;4998459;28;20072;-30
2022/03/06 09:47:50;;;;;;;15.48;9.10;;;2.20;72.20;;;;;;4997346;28;20530;-31
2022/03/06 09:50:16;;;;;;;16.10;7.18;;;2.40;63.80;;;;;;4994619;28;20084;-30
2022/03/06 09:52:42;;;;;;;14.52;6.95;;;2.30;63.70;;;;;;5000193;28;20425;-30
2022/03/06 09:55:10;;;;;;;14.70;7.13;;;2.30;63.70;;;;;;4996237;28;20030;-30
2022/03/06 09:57:35;;;;;;;13.80;7.13;;;2.50;64.20;;;;;;5002717;28;20499;-30
2022/03/06 10:00:02;;;;;;;15.00;7.15;;;2.50;64.30;;;;;;5000795;28;20076;-30
2022/03/06 10:02:28;;;;;;;14.00;6.85;;;2.60;62.70;;;;;;5000614;28;20030;-31
2022/03/06 10:04:54;;;;;;;21.50;8.30;;;2.50;63.60;;;;;;5005487;28;20029;-30
2022/03/06 10:07:19;;;;;;;13.40;7.75;;;2.60;62.50;;;;;;5002273;28;20026;-30
2022/03/06 10:09:52;;;;;;;15.60;8.05;;;2.70;60.00;;;;;;4999593;28;20053;-31
2022/03/06 10:12:26;;;;;;;11.02;6.65;;;2.70;61.60;;;;;;5001928;28;20190;-30
2022/03/06 10:14:54;;;;;;;13.95;6.95;;;2.80;61.80;;;;;;5001347;28;20060;-30
2022/03/06 10:17:22;;;;;;;14.90;7.90;;;2.80;60.80;;;;;;5001968;28;20052;-30
2022/03/06 10:19:58;;;;;;;15.85;9.00;;;2.90;61.00;;;;;;5002511;28;20032;-30
2022/03/06 10:22:29;;;;;;;15.68;7.95;;;2.80;60.30;;;;;;4999496;28;20045;-30
2022/03/06 10:24:56;;;;;;;18.10;7.57;;;2.90;60.30;;;;;;5000767;28;20478;-30
2022/03/06 10:27:46;;;;;;;13.93;6.82;;;2.90;61.00;;;;;;5004256;28;20087;-30
2022/03/06 10:30:31;;;;;;;15.60;6.85;;;3.00;61.70;;;;;;5003651;28;20038;-31
2022/03/06 10:33:02;;;;;;;12.93;7.30;;;3.10;58.90;;;;;;5004620;28;20038;-30
2022/03/06 10:35:36;;;;;;;13.60;5.78;;;3.10;58.20;;;;;;5002500;28;21905;-30
2022/03/06 10:38:22;;;;;;;13.98;6.60;;;3.20;58.60;;;;;;5002630;28;20497;-30
2022/03/06 10:40:50;;;;;;;10.80;6.03;;;3.30;57.30;;;;;;4997803;28;20026;-30
2022/03/06 10:43:17;;;;;;;13.60;7.40;;;3.40;59.90;;;;;;4999688;28;20443;-30
2022/03/06 10:45:42;;;;;;;14.82;6.57;;;3.40;58.60;;;;;;5000431;28;20045;-30
2022/03/06 10:48:10;;;;;;;13.73;7.57;;;3.60;57.10;;;;;;5001055;28;20038;-30
2022/03/06 10:50:35;;;;;;;13.00;6.78;;;3.70;57.40;;;;;;4998912;28;20973;-30
2022/03/06 10:53:01;;;;;;;14.77;8.45;;;3.60;56.20;;;;;;5000289;28;20092;-30
2022/03/06 10:55:34;;;;;;;14.55;7.68;;;3.50;59.70;;;;;;4998405;28;20021;-31
2022/03/06 10:58:01;;;;;;;11.98;6.93;;;3.40;55.80;;;;;;5001690;28;21184;-30
2022/03/06 11:00:27;;;;;;;12.05;7.03;;;3.60;58.00;;;;;;4995884;28;20022;-30
2022/03/06 11:02:55;;;;;;;12.35;6.97;;;3.40;54.30;;;;;;5001483;28;20034;-30
2022/03/06 11:05:21;;;;;;;16.67;7.70;;;3.40;54.50;;;;;;5000595;28;20433;-30
2022/03/06 11:07:47;;;;;;;13.95;7.28;;;3.60;54.40;;;;;;5001514;28;20042;-30
2022/03/06 11:10:12;;;;;;;14.27;6.65;;;3.60;53.00;;;;;;5002272;28;20030;-30
2022/03/06 11:12:38;;;;;;;14.52;7.78;;;3.70;52.90;;;;;;5001804;28;20029;-30
2022/03/06 11:15:04;;;;;;;15.82;7.03;;;3.60;55.20;;;;;;4995940;28;20483;-30
2022/03/06 11:17:32;;;;;;;14.77;7.88;;;3.60;56.80;;;;;;5001784;28;20172;-30
2022/03/06 11:19:58;;;;;;;11.32;6.28;;;3.40;54.80;;;;;;5004680;28;20041;-31
2022/03/06 11:22:49;;;;;;;12.15;6.65;;;3.00;54.10;;;;;;5001999;28;20034;-30
2022/03/06 11:25:20;;;;;;;12.82;6.57;;;2.90;56.20;;;;;;4999971;28;20037;-30
2022/03/06 11:27:57;;;;;;;14.30;6.13;;;2.90;54.50;;;;;;5004086;28;20048;-30
2022/03/06 11:30:24;;;;;;;10.25;6.03;;;2.90;53.50;;;;;;5003793;28;20041;-30
2022/03/06 11:33:08;;;;;;;10.90;6.38;;;3.10;52.90;;;;;;5000618;28;20033;-30
2022/03/06 11:35:43;;;;;;;13.02;6.55;;;3.00;51.60;;;;;;5004667;28;20023;-30
2022/03/06 11:38:13;;;;;;;12.50;6.00;;;2.90;53.00;;;;;;5003473;28;20486;-30
2022/03/06 11:40:43;;;;;;;14.15;6.68;;;3.00;54.40;;;;;;5001894;28;20025;-30
2022/03/06 11:43:09;;;;;;;12.18;6.32;;;3.20;53.70;;;;;;4999679;28;20048;-30
2022/03/06 11:46:14;;;;;;;16.38;7.18;;;3.30;53.30;;;;;;5003723;28;20394;-31
2022/03/06 11:48:40;;;;;;;10.98;6.75;;;3.30;54.40;;;;;;5002837;28;20058;-30
2022/03/06 11:51:14;;;;;;;15.02;6.75;;;3.10;53.70;;;;;;5002358;28;20081;-30
2022/03/06 11:53:52;;;;;;;13.82;7.70;;;3.10;53.70;;;;;;5003726;28;20040;-30
2022/03/06 11:56:39;;;;;;;13.73;7.07;;;3.40;54.10;;;;;;5003291;28;20030;-30
2022/03/06 11:59:29;;;;;;;15.48;8.30;;;3.60;53.90;;;;;;5005958;28;20113;-30
2022/03/06 12:02:10;;;;;;;13.13;7.40;;;3.80;52.50;;;;;;4998274;28;20463;-30
2022/03/06 12:04:40;;;;;;;14.45;8.13;;;3.90;53.60;;;;;;5002731;28;20045;-30
2022/03/06 12:07:09;;;;;;;14.38;8.60;;;4.10;56.60;;;;;;5003919;28;20117;-30
2022/03/06 12:09:41;;;;;;;14.55;7.47;;;4.50;55.10;;;;;;5006167;28;20168;-32
2022/03/06 12:12:10;;;;;;;15.38;7.43;;;4.50;54.20;;;;;;5007531;28;20030;-30
2022/03/06 12:14:41;;;;;;;15.13;7.50;;;4.60;55.00;;;;;;5002945;28;20037;-31
2022/03/06 12:17:10;;;;;;;14.20;8.35;;;4.60;55.20;;;;;;5007146;28;20053;-30
2022/03/06 12:19:45;;;;;;;;;;;4.70;53.30;;;;;;4987056;28;20053;-30
2022/03/06 12:22:34;;;;;;;11.82;6.93;;;4.30;54.40;;;;;;4998996;28;19918;-31
2022/03/06 12:25:11;;;;;;;13.13;7.25;;;3.60;53.60;;;;;;4999999;28;20022;-30
2022/03/06 12:27:42;;;;;;;13.70;7.43;;;3.50;56.00;;;;;;5002290;28;20038;-30
2022/03/06 12:30:13;;;;;;;14.43;7.93;;;3.40;55.50;;;;;;5005710;28;20037;-31
2022/03/06 12:32:40;;;;;;;13.00;6.60;;;3.60;56.10;;;;;;5003321;28;20042;-30
2022/03/06 12:35:07;;;;;;;14.27;7.55;;;3.50;57.20;;;;;;5003015;28;20555;-30
2022/03/06 12:37:35;;;;;;;13.57;7.32;;;3.60;54.60;;;;;;5000516;28;20080;-30
2022/03/06 12:40:03;;;;;;;13.35;7.28;;;3.70;55.10;;;;;;5007152;28;20494;-30
2022/03/06 12:42:34;;;;;;;14.60;7.45;;;3.60;54.70;;;;;;5001974;28;20073;-31
2022/03/06 12:45:06;;;;;;;14.15;7.53;;;3.60;56.00;;;;;;4982144;28;20026;-30
2022/03/06 12:47:32;;;;;;;17.10;8.00;;;3.90;59.20;;;;;;5001987;28;20109;-30